TimeCST,TemperatureF,Dew PointF,Humidity,Sea Level PressureIn,VisibilityMPH,Wind Direction,Wind SpeedMPH,Gust SpeedMPH,PrecipitationIn,Events,Conditions,WindDirDegrees,DateUTC
12:55 AM,37.8,32.2,80,29.95,10.0,Calm,Calm,-,N/A,,Clear,0,2013-02-13 06:55:00
1:55 AM,37.6,33.1,84,29.94,10.0,NNE,3.5,-,N/A,,Clear,30,2013-02-13 07:55:00
2:55 AM,37.4,32.5,83,29.91,10.0,Calm,Calm,-,N/A,,Clear,0,2013-02-13 08:55:00
3:55 AM,37.2,31.8,81,29.90,10.0,Calm,Calm,-,N/A,,Clear,0,2013-02-13 09:55:00
4:55 AM,37.0,33.1,86,29.88,10.0,Variable,3.5,-,N/A,,Clear,0,2013-02-13 10:55:00
5:55 AM,37.0,32.0,82,29.88,10.0,Calm,Calm,-,N/A,,Clear,0,2013-02-13 11:55:00
6:55 AM,36.7,32.4,84,29.89,10.0,Calm,Calm,-,N/A,,Clear,0,2013-02-13 12:55:00
7:55 AM,37.4,32.5,83,29.91,10.0,Calm,Calm,-,N/A,,Scattered Clouds,0,2013-02-13 13:55:00
8:55 AM,38.8,32.5,78,29.92,10.0,Calm,Calm,-,N/A,,Scattered Clouds,0,2013-02-13 14:55:00
9:55 AM,42.4,30.2,62,29.91,10.0,Variable,6.9,-,N/A,,Clear,0,2013-02-13 15:55:00
10:55 AM,46.2,26.2,46,29.89,10.0,Variable,4.6,-,N/A,,Clear,0,2013-02-13 16:55:00
11:55 AM,48.4,28.4,46,29.88,10.0,Variable,5.8,-,N/A,,Clear,0,2013-02-13 17:55:00
12:55 PM,51.6,28.2,41,29.85,10.0,Variable,5.8,-,N/A,,Clear,0,2013-02-13 18:55:00
1:55 PM,52.9,28.6,39,29.83,10.0,WSW,8.1,-,N/A,,Clear,240,2013-02-13 19:55:00
2:55 PM,54.7,23.4,30,29.82,10.0,WNW,9.2,-,N/A,,Clear,290,2013-02-13 20:55:00
3:55 PM,54.1,24.6,32,29.82,10.0,Variable,5.8,-,N/A,,Clear,0,2013-02-13 21:55:00
4:55 PM,52.9,24.1,33,29.82,10.0,West,8.1,-,N/A,,Clear,280,2013-02-13 22:55:00
5:55 PM,49.1,26.6,42,29.83,10.0,West,3.5,-,N/A,,Clear,270,2013-02-13 23:55:00
6:55 PM,44.6,26.8,50,29.85,10.0,West,3.5,-,N/A,,Clear,280,2013-02-14 00:55:00
7:55 PM,40.1,29.8,67,29.86,10.0,Calm,Calm,-,N/A,,Clear,0,2013-02-14 01:55:00
8:55 PM,40.6,29.8,65,29.88,10.0,Variable,3.5,-,N/A,,Clear,0,2013-02-14 02:55:00
9:55 PM,39.0,31.8,75,29.88,10.0,Variable,3.5,-,N/A,,Clear,0,2013-02-14 03:55:00
10:55 PM,38.1,31.6,77,29.88,10.0,Calm,Calm,-,N/A,,Clear,0,2013-02-14 04:55:00
11:55 PM,36.7,31.5,81,29.88,10.0,Calm,Calm,-,N/A,,Clear,0,2013-02-14 05:55:00